Time;durP1;ratioP1;P1;durP2;ratioP2;P2;SDS_P1;SDS_P2;PMS_P1;PMS_P2;Temp;Humidity;BMP_temperature;BMP_pressure;BME280_temperature;BME280_humidity;BME280_pressure;Samples;Min_cycle;Max_cycle;Signal;HPM_P1;HPM_P2
2022/05/08 00:02:16;;;;;;;17.00;14.45;;;17.60;29.20;;;;;;5050800;28;20090;-59
2022/05/08 00:04:42;;;;;;;15.77;14.15;;;17.60;29.30;;;;;;5053697;28;20463;-59
2022/05/08 00:07:08;;;;;;;16.60;14.90;;;17.60;29.60;;;;;;5052711;28;20048;-59
2022/05/08 00:09:34;;;;;;;16.42;14.82;;;17.60;29.60;;;;;;5053811;28;20036;-59
2022/05/08 00:11:59;;;;;;;16.83;14.75;;;17.60;29.70;;;;;;5052390;28;20410;-60
2022/05/08 00:14:26;;;;;;;15.95;14.40;;;17.50;29.90;;;;;;5053578;28;20044;-64
2022/05/08 00:16:52;;;;;;;16.00;14.30;;;17.50;30.00;;;;;;5046923;28;20041;-59
2022/05/08 00:19:18;;;;;;;15.93;14.10;;;17.50;30.50;;;;;;5053280;28;20033;-60
2022/05/08 00:21:43;;;;;;;16.05;13.90;;;17.40;30.40;;;;;;5052228;28;20033;-60
2022/05/08 00:24:09;;;;;;;15.15;13.70;;;17.40;30.60;;;;;;5053214;28;20066;-60
2022/05/08 00:26:35;;;;;;;15.68;13.80;;;17.40;30.70;;;;;;5052613;28;20032;-60
2022/05/08 00:29:01;;;;;;;16.55;14.80;;;17.30;30.60;;;;;;5053191;28;20077;-60
2022/05/08 00:31:27;;;;;;;15.95;14.05;;;17.40;30.60;;;;;;5052153;28;20532;-61
2022/05/08 00:33:53;;;;;;;17.85;16.00;;;17.40;30.50;;;;;;5053399;28;20070;-60
2022/05/08 00:36:19;;;;;;;14.77;13.27;;;17.40;30.70;;;;;;5052380;28;20485;-60
2022/05/08 00:38:45;;;;;;;16.75;14.18;;;17.40;30.90;;;;;;5053434;28;20025;-60
2022/05/08 00:41:10;;;;;;;18.30;15.38;;;17.50;31.10;;;;;;5052442;28;20455;-60
2022/05/08 00:43:38;;;;;;;16.50;14.85;;;17.50;31.50;;;;;;5052567;28;20036;-60
2022/05/08 00:46:06;;;;;;;17.02;15.15;;;17.50;31.40;;;;;;5050629;28;20053;-60
2022/05/08 00:48:32;;;;;;;16.40;14.27;;;17.40;30.60;;;;;;5053212;28;20025;-60
2022/05/08 00:51:00;;;;;;;16.27;14.57;;;17.40;31.60;;;;;;5051949;28;20039;-60
2022/05/08 00:53:28;;;;;;;16.05;14.52;;;17.40;31.50;;;;;;5052919;28;20124;-60
2022/05/08 00:55:55;;;;;;;17.20;14.07;;;17.40;31.30;;;;;;5051433;28;20511;-60
2022/05/08 00:58:21;;;;;;;16.35;14.65;;;17.40;30.70;;;;;;5068016;28;20398;-60
2022/05/08 01:00:46;;;;;;;15.45;13.90;;;17.40;31.70;;;;;;5050959;28;20028;-60
2022/05/08 01:03:12;;;;;;;14.48;13.02;;;17.40;31.80;;;;;;5052747;28;20122;-60
2022/05/08 01:05:41;;;;;;;13.68;12.40;;;17.40;31.90;;;;;;5051535;28;20039;-60
2022/05/08 01:08:09;;;;;;;13.27;11.88;;;17.40;31.40;;;;;;5052393;28;20029;-60
2022/05/08 01:10:37;;;;;;;13.20;11.90;;;17.40;31.40;;;;;;5057549;28;20090;-60
2022/05/08 01:13:03;;;;;;;13.30;11.90;;;17.40;31.30;;;;;;5051863;28;20108;-60
2022/05/08 01:15:29;;;;;;;12.60;11.30;;;17.40;31.40;;;;;;5051416;28;20029;-60
2022/05/08 01:17:55;;;;;;;12.65;11.35;;;17.40;31.40;;;;;;5035736;28;20052;-60
2022/05/08 01:20:21;;;;;;;13.38;11.98;;;17.40;31.30;;;;;;5040237;28;20025;-60
2022/05/08 01:22:47;;;;;;;13.15;11.75;;;17.30;31.50;;;;;;5051568;28;20036;-60
2022/05/08 01:25:12;;;;;;;13.27;11.98;;;17.30;31.70;;;;;;5050507;28;20059;-60
2022/05/08 01:27:38;;;;;;;14.27;12.77;;;17.30;31.90;;;;;;5051658;28;20020;-60
2022/05/08 01:30:05;;;;;;;12.52;11.23;;;17.30;31.80;;;;;;5050597;28;20043;-61
2022/05/08 01:32:31;;;;;;;13.25;11.95;;;17.30;31.70;;;;;;5051717;28;20029;-60
2022/05/08 01:34:57;;;;;;;14.02;11.93;;;17.30;31.70;;;;;;5050811;28;20025;-61
2022/05/08 01:37:22;;;;;;;12.77;11.38;;;17.20;31.80;;;;;;5051626;28;20029;-61
2022/05/08 01:39:48;;;;;;;14.45;12.63;;;17.30;31.90;;;;;;5049797;28;20500;-61
2022/05/08 01:42:14;;;;;;;13.52;11.95;;;17.30;31.90;;;;;;5050950;28;20160;-61
2022/05/08 01:44:39;;;;;;;14.23;11.88;;;17.30;32.10;;;;;;5050907;28;20029;-60
2022/05/08 01:49:49;;;;;;;14.55;13.05;;;17.20;32.00;;;;;;5050523;28;20090;-61
2022/05/08 01:52:15;;;;;;;14.40;12.88;;;17.20;32.10;;;;;;5051142;28;20025;-61
2022/05/08 01:54:40;;;;;;;15.90;14.20;;;17.30;32.30;;;;;;5050658;28;20394;-61
2022/05/08 01:57:06;;;;;;;15.02;13.43;;;17.30;32.40;;;;;;5051991;28;20037;-61
2022/05/08 01:59:32;;;;;;;15.93;14.23;;;17.20;32.20;;;;;;5051024;28;20025;-60
2022/05/08 02:01:58;;;;;;;14.65;13.15;;;17.20;32.40;;;;;;5051240;28;20375;-60
2022/05/08 02:04:24;;;;;;;15.02;13.60;;;17.20;32.70;;;;;;5051774;28;20025;-61
2022/05/08 02:06:50;;;;;;;15.98;13.85;;;17.20;32.00;;;;;;5051064;28;20086;-61
2022/05/08 02:09:15;;;;;;;15.65;14.02;;;17.20;32.10;;;;;;5052030;28;20040;-60
2022/05/08 02:11:41;;;;;;;17.20;14.45;;;17.20;32.10;;;;;;5050847;28;20025;-61
2022/05/08 02:14:07;;;;;;;16.60;14.82;;;17.20;31.80;;;;;;5051747;28;20090;-61
2022/05/08 02:16:32;;;;;;;16.25;13.63;;;17.10;32.30;;;;;;5055467;28;20493;-61
2022/05/08 02:18:58;;;;;;;16.00;12.45;;;17.20;32.10;;;;;;5054864;28;20028;-61
2022/05/08 02:21:25;;;;;;;15.38;13.10;;;17.00;32.40;;;;;;5054329;28;20078;-60
2022/05/08 02:23:50;;;;;;;15.60;13.18;;;17.00;32.30;;;;;;5053250;28;20111;-60
2022/05/08 02:26:16;;;;;;;13.55;12.02;;;17.10;32.00;;;;;;5055123;28;20072;-60
2022/05/08 02:28:41;;;;;;;14.65;12.65;;;17.10;32.00;;;;;;5054952;28;20070;-60
2022/05/08 02:31:07;;;;;;;15.55;12.25;;;17.00;32.10;;;;;;5055177;28;20032;-60
2022/05/08 02:33:33;;;;;;;14.05;12.63;;;17.00;32.30;;;;;;5054639;28;20025;-60
2022/05/08 02:35:59;;;;;;;13.45;12.05;;;17.00;32.50;;;;;;5053434;28;20442;-60
2022/05/08 02:38:25;;;;;;;13.23;11.82;;;17.00;32.30;;;;;;5053796;28;20040;-60
2022/05/08 02:40:51;;;;;;;13.18;11.85;;;17.10;32.00;;;;;;5054618;28;20029;-60
2022/05/08 02:43:20;;;;;;;12.45;11.20;;;17.00;32.00;;;;;;5054404;28;20037;-60
2022/05/08 02:45:47;;;;;;;12.32;11.07;;;17.00;31.80;;;;;;5054888;28;20047;-59
2022/05/08 02:48:13;;;;;;;11.57;10.40;;;16.90;31.70;;;;;;5050106;28;20490;-61
2022/05/08 02:50:38;;;;;;;12.52;11.25;;;16.90;31.80;;;;;;5044425;28;20523;-60
2022/05/08 02:53:05;;;;;;;11.88;10.57;;;17.00;32.00;;;;;;5048623;28;20120;-60
2022/05/08 02:58:33;;;;;;;13.77;11.80;;;17.00;31.50;;;;;;5051365;28;20044;-59
2022/05/08 03:01:06;;;;;;;13.68;12.20;;;16.90;32.20;;;;;;5048375;28;20033;-60
2022/05/08 03:03:32;;;;;;;15.73;12.70;;;16.90;31.70;;;;;;5047337;28;20567;-61
2022/05/08 03:05:58;;;;;;;13.52;11.95;;;16.90;32.20;;;;;;5052795;28;20200;-60
2022/05/08 03:08:24;;;;;;;13.48;12.07;;;16.90;31.60;;;;;;5055303;28;20064;-60
2022/05/08 03:13:38;;;;;;;14.52;12.38;;;17.00;32.00;;;;;;5053652;28;20036;-60
2022/05/08 03:16:06;;;;;;;14.60;12.50;;;16.90;32.10;;;;;;5053297;28;20032;-60
2022/05/08 03:18:32;;;;;;;13.15;11.80;;;16.90;31.10;;;;;;5052249;28;20029;-60
2022/05/08 03:20:58;;;;;;;14.63;12.85;;;16.80;33.10;;;;;;5054299;28;20025;-61
2022/05/08 03:23:24;;;;;;;14.25;12.32;;;16.80;32.70;;;;;;5054054;28;20108;-61
2022/05/08 03:25:50;;;;;;;13.75;11.95;;;16.80;32.60;;;;;;5053549;28;20112;-61
2022/05/08 03:28:16;;;;;;;14.27;12.07;;;16.70;32.90;;;;;;5053751;28;20106;-59
2022/05/08 03:30:43;;;;;;;14.77;12.45;;;16.80;32.00;;;;;;5054306;28;20142;-60
2022/05/08 03:33:09;;;;;;;14.10;12.70;;;16.70;32.30;;;;;;5054480;28;20017;-63
2022/05/08 03:35:39;;;;;;;13.55;12.18;;;16.80;32.50;;;;;;5041533;28;20099;-60
2022/05/08 03:38:06;;;;;;;14.27;12.77;;;16.90;31.50;;;;;;5034385;28;20119;-61
2022/05/08 03:40:33;;;;;;;13.13;11.77;;;16.70;32.70;;;;;;5066399;28;20033;-61
2022/05/08 03:42:59;;;;;;;13.75;12.23;;;16.80;32.20;;;;;;5053554;28;20035;-60
2022/05/08 03:45:25;;;;;;;13.07;10.75;;;16.80;32.40;;;;;;5051768;28;20025;-60
2022/05/08 03:47:54;;;;;;;12.90;11.55;;;16.80;32.50;;;;;;5053163;28;20406;-61
2022/05/08 03:50:20;;;;;;;13.13;11.38;;;16.80;31.30;;;;;;5053161;28;20076;-61
2022/05/08 03:52:47;;;;;;;12.63;11.05;;;16.80;32.40;;;;;;5054254;28;20028;-61
2022/05/08 03:55:15;;;;;;;11.48;10.27;;;16.70;32.20;;;;;;5052614;28;20429;-60
2022/05/08 03:57:44;;;;;;;12.38;10.77;;;16.70;32.60;;;;;;5052871;28;20367;-61
2022/05/08 04:00:11;;;;;;;11.38;10.23;;;16.80;32.90;;;;;;5052887;28;20513;-60
2022/05/08 04:02:37;;;;;;;11.70;9.93;;;16.80;32.70;;;;;;5053907;28;20028;-60
2022/05/08 04:05:03;;;;;;;11.13;9.95;;;16.80;32.30;;;;;;5052837;28;20079;-60
2022/05/08 04:07:30;;;;;;;10.55;8.82;;;16.80;32.10;;;;;;5053599;28;20043;-60
2022/05/08 04:09:56;;;;;;;10.35;9.27;;;16.80;32.30;;;;;;5053139;28;20437;-61
2022/05/08 04:12:21;;;;;;;8.88;8.07;;;16.80;31.90;;;;;;5054000;28;20032;-61
2022/05/08 04:14:47;;;;;;;10.13;8.07;;;16.80;32.10;;;;;;5052391;28;20029;-60
2022/05/08 04:17:13;;;;;;;8.52;7.68;;;16.80;31.90;;;;;;5052694;28;20058;-60
2022/05/08 04:19:38;;;;;;;8.27;7.40;;;16.80;31.80;;;;;;5050496;28;20085;-61
2022/05/08 04:24:49;;;;;;;8.23;7.43;;;16.70;32.10;;;;;;5052783;28;20154;-61
2022/05/08 04:27:14;;;;;;;8.38;7.57;;;16.80;32.10;;;;;;5053480;28;20064;-61
2022/05/08 04:29:40;;;;;;;8.10;7.18;;;16.80;32.10;;;;;;5052535;28;20145;-61
2022/05/08 04:32:06;;;;;;;8.65;7.75;;;16.80;32.10;;;;;;5052148;28;20386;-60
2022/05/08 04:34:31;;;;;;;7.95;7.15;;;16.80;30.70;;;;;;5052152;28;20550;-61
2022/05/08 04:36:57;;;;;;;8.30;7.47;;;16.80;31.70;;;;;;5053241;28;20130;-60
2022/05/08 04:39:23;;;;;;;9.30;6.88;;;16.80;32.10;;;;;;5051019;28;20105;-60
2022/05/08 04:41:48;;;;;;;7.38;6.57;;;16.80;31.90;;;;;;5034738;28;20383;-60
2022/05/08 04:44:14;;;;;;;6.65;6.05;;;16.80;32.00;;;;;;5041305;28;20033;-61
2022/05/08 04:46:40;;;;;;;8.02;6.22;;;16.80;31.60;;;;;;5051820;28;20041;-60
2022/05/08 04:49:06;;;;;;;6.47;5.80;;;16.70;29.20;;;;;;5053276;28;20027;-61
2022/05/08 04:51:32;;;;;;;6.47;5.85;;;16.70;31.80;;;;;;5051606;28;20033;-60
2022/05/08 04:53:57;;;;;;;6.80;6.20;;;16.80;31.80;;;;;;5052896;28;20115;-60
2022/05/08 04:56:23;;;;;;;7.18;6.50;;;16.80;31.50;;;;;;5067210;28;20048;-60
2022/05/08 04:58:49;;;;;;;9.05;6.85;;;16.90;31.60;;;;;;5052679;28;20033;-60
2022/05/08 05:01:14;;;;;;;7.80;6.20;;;17.00;31.60;;;;;;5052017;28;20458;-60
2022/05/08 05:03:41;;;;;;;5.85;5.25;;;17.00;31.20;;;;;;5052679;28;20036;-60
2022/05/08 05:06:07;;;;;;;7.10;6.40;;;16.90;31.00;;;;;;5051746;28;20032;-61
2022/05/08 05:08:33;;;;;;;7.95;5.82;;;17.00;31.20;;;;;;5051908;28;20165;-60
2022/05/08 05:10:59;;;;;;;6.93;6.22;;;17.00;31.10;;;;;;5051561;28;20116;-61
2022/05/08 05:13:25;;;;;;;7.07;6.38;;;17.00;30.80;;;;;;5052252;28;20029;-61
2022/05/08 05:15:51;;;;;;;7.10;6.50;;;17.00;30.90;;;;;;5051650;28;20025;-60
2022/05/08 05:18:17;;;;;;;7.50;6.43;;;17.10;30.80;;;;;;5052381;28;20036;-61
2022/05/08 05:20:45;;;;;;;7.55;6.07;;;17.10;31.00;;;;;;5050506;28;20378;-61
2022/05/08 05:23:11;;;;;;;6.80;6.03;;;17.20;31.00;;;;;;5052399;28;20025;-60
2022/05/08 05:25:37;;;;;;;7.15;5.82;;;17.20;31.70;;;;;;5050335;28;20039;-60
2022/05/08 05:28:03;;;;;;;6.90;6.00;;;17.10;32.10;;;;;;5052066;28;20398;-60
2022/05/08 05:30:29;;;;;;;6.80;6.20;;;17.10;31.70;;;;;;5051607;28;20036;-61
2022/05/08 05:32:54;;;;;;;6.00;5.40;;;17.10;31.60;;;;;;5052434;28;20033;-61
2022/05/08 05:35:20;;;;;;;6.18;5.57;;;17.10;31.80;;;;;;5051279;28;20519;-61
2022/05/08 05:37:46;;;;;;;6.88;5.72;;;17.20;31.50;;;;;;5036025;28;20092;-61
2022/05/08 05:40:11;;;;;;;5.90;5.30;;;17.20;31.30;;;;;;5044775;28;20072;-60
2022/05/08 05:42:37;;;;;;;8.05;5.90;;;17.20;31.10;;;;;;5052503;28;20029;-60
2022/05/08 05:45:03;;;;;;;6.15;5.32;;;17.30;31.00;;;;;;5051163;28;20025;-61
2022/05/08 05:50:13;;;;;;;5.17;4.43;;;17.40;31.30;;;;;;5055630;28;20028;-61
2022/05/08 05:52:38;;;;;;;5.22;4.72;;;17.40;30.60;;;;;;5059100;28;20263;-60
2022/05/08 05:55:06;;;;;;;5.20;4.57;;;17.50;30.90;;;;;;5058046;28;20463;-61
2022/05/08 05:57:33;;;;;;;4.97;4.50;;;17.40;30.80;;;;;;5057529;28;20041;-61
2022/05/08 05:59:58;;;;;;;5.18;4.68;;;17.50;30.50;;;;;;5057721;28;20109;-61
2022/05/08 06:02:24;;;;;;;4.75;4.25;;;17.50;30.40;;;;;;5058735;28;20065;-61
2022/05/08 06:04:50;;;;;;;5.82;4.30;;;17.60;30.00;;;;;;5057713;28;20123;-61
2022/05/08 06:07:15;;;;;;;4.43;4.03;;;17.50;29.60;;;;;;5057623;28;20029;-60
2022/05/08 06:09:41;;;;;;;4.20;3.80;;;17.60;29.60;;;;;;5072817;28;20029;-60
2022/05/08 06:12:07;;;;;;;4.78;3.95;;;17.70;29.20;;;;;;5058051;28;20398;-60
2022/05/08 06:14:33;;;;;;;4.63;3.88;;;17.70;28.70;;;;;;5050862;28;20025;-61
2022/05/08 06:16:58;;;;;;;4.00;3.70;;;17.80;28.70;;;;;;5057193;28;20067;-61
2022/05/08 06:19:24;;;;;;;4.97;3.65;;;17.80;28.70;;;;;;5073996;28;20558;-61
2022/05/08 06:21:49;;;;;;;4.53;4.13;;;17.80;28.50;;;;;;5055931;28;20060;-61
2022/05/08 06:24:16;;;;;;;6.85;4.18;;;17.80;28.80;;;;;;5058496;28;20113;-60
2022/05/08 06:26:41;;;;;;;6.88;3.58;;;17.80;28.70;;;;;;5047902;28;20060;-61
2022/05/08 06:29:07;;;;;;;5.30;4.35;;;17.60;27.60;;;;;;5038108;28;20029;-61
2022/05/08 06:31:32;;;;;;;3.80;3.40;;;17.80;28.60;;;;;;5048878;28;20454;-61
2022/05/08 06:33:58;;;;;;;4.35;3.28;;;17.80;28.10;;;;;;5057798;28;20103;-61
2022/05/08 06:36:26;;;;;;;5.05;3.83;;;17.80;27.70;;;;;;5057381;28;20040;-61
2022/05/08 06:38:52;;;;;;;3.92;3.63;;;17.80;24.90;;;;;;5057914;28;20029;-61
2022/05/08 06:41:18;;;;;;;4.38;3.60;;;17.80;27.80;;;;;;5057566;28;20056;-61
2022/05/08 06:43:44;;;;;;;4.78;4.38;;;17.90;27.60;;;;;;5056709;28;20032;-61
2022/05/08 06:46:11;;;;;;;3.70;3.40;;;17.90;24.50;;;;;;5057502;28;20041;-60
2022/05/08 06:48:37;;;;;;;3.85;3.50;;;17.80;27.10;;;;;;5058602;28;20405;-61
2022/05/08 06:51:03;;;;;;;3.80;3.45;;;17.90;27.60;;;;;;5057528;28;20029;-61
2022/05/08 06:53:30;;;;;;;5.97;3.97;;;17.90;26.70;;;;;;5057985;28;20029;-60
2022/05/08 06:55:56;;;;;;;4.72;3.50;;;18.10;26.60;;;;;;5056495;28;20028;-61
2022/05/08 06:58:21;;;;;;;4.43;3.40;;;18.00;25.80;;;;;;5058226;28;20036;-61
2022/05/08 07:03:32;;;;;;;;;;;18.20;25.70;;;;;;5055579;28;20098;-61
2022/05/08 07:06:00;;;;;;;3.47;2.95;;;18.20;21.10;;;;;;5054415;28;19991;-61
2022/05/08 07:08:26;;;;;;;4.30;3.10;;;18.30;26.40;;;;;;5054773;28;20390;-61
2022/05/08 07:10:51;;;;;;;3.80;3.45;;;18.30;25.90;;;;;;5053398;28;20025;-61
2022/05/08 07:13:22;;;;;;;3.17;2.92;;;18.40;25.60;;;;;;5054618;28;20028;-61
2022/05/08 07:15:47;;;;;;;2.78;2.58;;;18.40;25.20;;;;;;5052496;28;20562;-61
2022/05/08 07:18:13;;;;;;;3.42;2.38;;;18.50;24.80;;;;;;5053338;28;20037;-61
2022/05/08 07:20:39;;;;;;;2.33;2.13;;;18.50;24.40;;;;;;5052200;28;20105;-61
2022/05/08 07:26:27;;;;;;;2.20;2.05;;;18.60;19.60;;;;;;5053562;28;20036;-61
2022/05/08 07:28:52;;;;;;;2.08;1.85;;;18.70;22.70;;;;;;5054493;28;20025;-61
2022/05/08 07:31:18;;;;;;;2.38;2.17;;;18.80;22.40;;;;;;5051137;28;20025;-61
2022/05/08 07:33:44;;;;;;;3.15;2.20;;;18.80;21.90;;;;;;5035150;28;20183;-61
2022/05/08 07:36:12;;;;;;;2.88;1.67;;;18.90;21.20;;;;;;5037515;28;20056;-61
2022/05/08 07:38:39;;;;;;;1.88;1.77;;;18.90;20.70;;;;;;5053525;28;20083;-61
2022/05/08 07:41:05;;;;;;;1.88;1.77;;;19.00;20.40;;;;;;5052836;28;20504;-61
2022/05/08 07:43:30;;;;;;;1.60;1.50;;;19.10;19.70;;;;;;5053919;28;20036;-61
2022/05/08 07:45:56;;;;;;;1.27;1.17;;;19.10;19.20;;;;;;5053080;28;20032;-61
2022/05/08 07:48:21;;;;;;;1.70;1.60;;;19.10;18.50;;;;;;5053977;28;20375;-61
2022/05/08 07:50:47;;;;;;;2.40;1.55;;;19.10;18.20;;;;;;5053653;28;20390;-61
2022/05/08 07:53:13;;;;;;;1.60;1.50;;;19.10;17.70;;;;;;5053351;28;20033;-61
2022/05/08 07:55:40;;;;;;;2.50;1.70;;;19.10;17.20;;;;;;5054002;28;20107;-61
2022/05/08 07:58:06;;;;;;;2.78;1.85;;;19.10;18.10;;;;;;5052744;28;20033;-61
2022/05/08 08:00:31;;;;;;;1.88;1.67;;;19.20;17.80;;;;;;5053463;28;20409;-61
2022/05/08 08:02:57;;;;;;;2.85;1.77;;;19.10;17.10;;;;;;5052958;28;20475;-60
2022/05/08 08:05:23;;;;;;;1.70;1.60;;;19.00;16.30;;;;;;5053490;28;20029;-61
2022/05/08 08:07:49;;;;;;;2.47;1.92;;;19.10;16.10;;;;;;5052051;28;20399;-61
2022/05/08 08:10:15;;;;;;;1.80;1.70;;;19.10;16.10;;;;;;5052797;28;20033;-61
2022/05/08 08:12:41;;;;;;;3.22;1.40;;;19.10;15.50;;;;;;5049208;28;20040;-61
2022/05/08 08:15:08;;;;;;;2.25;1.58;;;19.20;14.90;;;;;;5050581;28;20028;-61
2022/05/08 08:17:34;;;;;;;2.25;1.33;;;19.20;15.00;;;;;;5044822;28;20079;-61
2022/05/08 08:19:59;;;;;;;1.58;1.48;;;19.20;15.00;;;;;;5053423;28;20025;-61
2022/05/08 08:22:25;;;;;;;1.38;1.27;;;19.30;14.50;;;;;;5053057;28;20028;-61
2022/05/08 08:24:51;;;;;;;1.40;1.30;;;19.40;14.10;;;;;;5053569;28;20047;-61
2022/05/08 08:27:18;;;;;;;1.25;1.20;;;19.40;13.70;;;;;;5052768;28;20053;-61
2022/05/08 08:29:45;;;;;;;1.27;1.10;;;19.50;13.20;;;;;;5053517;28;20527;-61
2022/05/08 08:32:11;;;;;;;1.33;1.23;;;19.60;12.90;;;;;;5043039;28;20037;-61
2022/05/08 08:34:36;;;;;;;1.60;1.50;;;19.70;13.10;;;;;;5050079;28;20029;-61
2022/05/08 08:37:02;;;;;;;2.38;1.92;;;19.60;15.00;;;;;;5051910;28;20039;-61
2022/05/08 08:39:28;;;;;;;4.45;3.08;;;19.70;12.80;;;;;;5053335;28;20039;-63
2022/05/08 08:42:30;;;;;;;2.03;1.50;;;19.80;12.80;;;;;;5052425;28;20025;-61
2022/05/08 08:47:52;;;;;;;1.77;1.67;;;19.90;12.30;;;;;;5052205;28;20064;-60
2022/05/08 08:50:19;;;;;;;2.45;2.20;;;19.90;10.90;;;;;;5051120;28;20505;-61
2022/05/08 08:52:46;;;;;;;3.05;2.75;;;19.90;12.10;;;;;;5051895;28;20512;-61
2022/05/08 08:55:14;;;;;;;3.33;2.70;;;20.00;11.10;;;;;;5051021;28;20025;-60
2022/05/08 08:57:39;;;;;;;2.78;2.25;;;20.00;11.20;;;;;;5043163;28;20199;-61
2022/05/08 09:00:06;;;;;;;2.47;2.28;;;20.00;11.20;;;;;;5036551;28;20339;-60
2022/05/08 09:02:32;;;;;;;2.45;2.28;;;20.00;10.50;;;;;;5046116;28;20029;-60
2022/05/08 09:04:58;;;;;;;2.05;1.85;;;20.20;10.80;;;;;;5045216;28;20025;-60
2022/05/08 09:07:49;;;;;;;4.25;1.73;;;20.20;11.30;;;;;;5041786;28;20033;-61
2022/05/08 09:10:14;;;;;;;1.77;1.55;;;20.30;7.90;;;;;;5040462;28;20099;-59
2022/05/08 09:13:02;;;;;;;1.40;1.30;;;20.40;10.80;;;;;;5037761;28;20087;-60
2022/05/08 09:15:30;;;;;;;2.00;1.90;;;20.50;7.70;;;;;;5046840;28;20048;-60
2022/05/08 09:17:57;;;;;;;2.05;1.80;;;20.50;9.50;;;;;;5046000;28;20074;-60
2022/05/08 09:20:27;;;;;;;2.00;1.90;;;20.50;9.20;;;;;;5047955;28;20486;-60
2022/05/08 09:23:11;;;;;;;2.40;2.03;;;20.50;8.30;;;;;;5050316;28;20036;-60
2022/05/08 09:25:45;;;;;;;1.90;1.80;;;20.50;6.60;;;;;;5051116;28;20033;-60
2022/05/08 09:28:19;;;;;;;1.70;1.60;;;20.40;6.80;;;;;;5051627;28;20387;-60
2022/05/08 09:31:06;;;;;;;2.50;1.75;;;20.50;8.50;;;;;;5044750;28;20025;-60
2022/05/08 09:33:34;;;;;;;2.95;2.60;;;20.50;7.00;;;;;;5050786;28;20032;-60
2022/05/08 09:36:04;;;;;;;2.35;2.25;;;20.60;8.10;;;;;;5051287;28;20029;-60
2022/05/08 09:39:03;;;;;;;2.85;2.05;;;20.60;7.90;;;;;;5049447;28;20044;-60
2022/05/08 09:41:37;;;;;;;1.90;1.80;;;20.70;5.20;;;;;;5042128;28;20127;-60
2022/05/08 09:44:13;;;;;;;2.17;1.95;;;20.70;7.20;;;;;;5048779;28;20075;-60
2022/05/08 09:46:43;;;;;;;2.00;1.90;;;20.70;7.10;;;;;;5049843;28;20135;-61
2022/05/08 09:49:13;;;;;;;5.10;2.10;;;20.70;7.80;;;;;;5052258;28;20031;-60
2022/05/08 09:51:43;;;;;;;4.13;1.65;;;20.80;7.80;;;;;;5038289;28;20026;-60
2022/05/08 09:54:09;;;;;;;1.92;1.65;;;20.80;7.50;;;;;;5051681;28;20048;-61
2022/05/08 09:56:36;;;;;;;3.38;2.50;;;20.80;7.70;;;;;;5038361;28;20168;-60
2022/05/08 09:59:06;;;;;;;1.95;1.85;;;20.80;7.10;;;;;;5051398;28;20044;-61
2022/05/08 10:01:32;;;;;;;1.95;1.83;;;20.80;7.20;;;;;;5040960;28;20504;-61
2022/05/08 10:03:59;;;;;;;2.65;2.38;;;20.80;7.00;;;;;;5032753;28;20018;-61
2022/05/08 10:06:28;;;;;;;4.97;4.57;;;20.80;6.90;;;;;;5038607;28;20394;-60
2022/05/08 10:13:53;;;;;;;4.88;3.30;;;20.90;6.60;;;;;;5050960;28;20044;-61
2022/05/08 10:14:29;;;;;;;2.47;2.35;;;20.90;6.50;;;;;;5051442;28;20044;-61
2022/05/08 10:17:04;;;;;;;2.45;2.25;;;21.00;6.60;;;;;;5048282;28;20394;-61
2022/05/08 10:19:32;;;;;;;3.17;2.28;;;20.90;5.00;;;;;;5033884;28;20415;-61
2022/05/08 10:22:03;;;;;;;2.67;2.17;;;20.90;5.70;;;;;;5046464;28;20024;-61
2022/05/08 10:24:30;;;;;;;2.70;2.50;;;20.90;6.00;;;;;;5050967;28;20080;-61
2022/05/08 10:27:24;;;;;;;2.17;1.98;;;21.00;5.70;;;;;;5044253;28;20028;-61
2022/05/08 10:29:50;;;;;;;2.53;2.33;;;21.00;3.70;;;;;;5052139;28;20025;-61
2022/05/08 10:32:33;;;;;;;2.83;2.63;;;21.00;5.40;;;;;;5048515;28;20068;-61
2022/05/08 10:35:14;;;;;;;2.85;2.30;;;21.00;4.00;;;;;;5049589;28;20104;-60
2022/05/08 10:37:47;;;;;;;3.00;2.80;;;21.00;3.10;;;;;;5042653;28;20049;-61
2022/05/08 10:40:21;;;;;;;3.67;3.10;;;21.10;5.30;;;;;;5048631;28;20478;-60
2022/05/08 10:42:48;;;;;;;3.17;2.88;;;21.20;3.90;;;;;;5046923;28;20099;-60
2022/05/08 10:45:32;;;;;;;2.60;2.40;;;21.30;4.50;;;;;;5052049;28;20096;-60
2022/05/08 10:48:07;;;;;;;2.80;2.60;;;21.40;3.60;;;;;;5047032;28;20207;-60
2022/05/08 10:50:37;;;;;;;3.22;2.90;;;21.50;3.60;;;;;;5065328;28;20030;-60
2022/05/08 10:53:03;;;;;;;2.67;2.47;;;21.50;4.20;;;;;;5052049;28;20021;-61
2022/05/08 10:55:30;;;;;;;3.45;2.50;;;21.60;4.10;;;;;;5051364;28;20035;-60
2022/05/08 10:57:56;;;;;;;2.33;2.13;;;21.70;4.60;;;;;;5052052;28;20039;-60
2022/05/08 11:00:27;;;;;;;2.78;2.53;;;21.80;5.20;;;;;;5050698;28;20036;-60
2022/05/08 11:02:57;;;;;;;2.20;2.10;;;21.70;4.00;;;;;;5044511;28;20021;-60
2022/05/08 11:05:28;;;;;;;2.97;2.67;;;21.60;3.20;;;;;;5051339;28;20029;-60
2022/05/08 11:07:54;;;;;;;3.17;2.53;;;21.50;3.20;;;;;;5050016;28;20040;-59
2022/05/08 11:10:35;;;;;;;4.13;3.20;;;21.50;4.20;;;;;;5045585;28;20052;-60
2022/05/08 11:13:11;;;;;;;2.80;2.60;;;21.40;3.20;;;;;;5049853;28;20037;-59
2022/05/08 11:15:43;;;;;;;5.15;3.40;;;21.40;3.80;;;;;;5051599;28;20090;-60
2022/05/08 11:18:20;;;;;;;3.40;3.00;;;21.40;4.60;;;;;;5046571;28;20048;-59
2022/05/08 11:20:53;;;;;;;2.80;2.42;;;21.50;5.00;;;;;;5042341;28;20036;-60
2022/05/08 11:23:23;;;;;;;2.50;2.30;;;21.40;5.00;;;;;;5051907;28;20057;-60
2022/05/08 11:25:52;;;;;;;2.92;2.60;;;21.50;5.00;;;;;;5050717;28;20475;-60
2022/05/08 11:28:20;;;;;;;3.03;2.72;;;21.60;5.10;;;;;;5047374;28;20017;-60
2022/05/08 11:30:50;;;;;;;2.88;2.63;;;21.80;4.70;;;;;;5053127;28;20024;-60
2022/05/08 11:36:05;;;;;;;3.63;3.30;;;22.00;4.10;;;;;;5050326;28;20068;-60
2022/05/08 11:38:41;;;;;;;3.10;2.83;;;22.10;3.60;;;;;;5040110;28;20060;-59
2022/05/08 11:41:09;;;;;;;3.13;2.83;;;22.10;2.20;;;;;;5051464;28;20032;-60
2022/05/08 11:43:40;;;;;;;3.10;2.58;;;22.10;3.70;;;;;;5047952;28;20478;-60
2022/05/08 11:46:11;;;;;;;4.07;3.47;;;22.30;3.40;;;;;;5049190;28;20052;-59
2022/05/08 11:48:43;;;;;;;4.63;3.67;;;22.70;2.80;;;;;;5048685;28;20037;-60
2022/05/08 11:51:11;;;;;;;3.03;2.83;;;22.70;2.80;;;;;;5049111;28;20406;-60
2022/05/08 11:53:49;;;;;;;3.35;2.97;;;22.50;2.90;;;;;;5050763;28;20033;-61
2022/05/08 11:56:24;;;;;;;3.60;3.03;;;22.50;1.00;;;;;;5051155;28;20493;-61
2022/05/08 11:58:50;;;;;;;3.60;3.30;;;22.40;1.50;;;;;;5048912;28;20100;-61
2022/05/08 12:01:23;;;;;;;5.65;3.25;;;22.40;2.90;;;;;;5052442;28;20036;-61
2022/05/08 12:03:48;;;;;;;3.55;3.13;;;22.40;2.50;;;;;;5048517;28;20145;-61
2022/05/08 12:06:14;;;;;;;2.53;2.33;;;22.40;3.10;;;;;;5049456;28;20506;-61
2022/05/08 12:08:40;;;;;;;2.28;2.00;;;22.20;2.70;;;;;;5041512;28;20033;-61
2022/05/08 12:11:06;;;;;;;2.80;2.40;;;22.10;2.40;;;;;;5049726;28;20070;-61
2022/05/08 12:13:34;;;;;;;2.00;1.90;;;22.00;1.90;;;;;;5044643;28;20037;-61
2022/05/08 12:16:16;;;;;;;2.42;2.22;;;22.00;2.10;;;;;;5046571;28;20025;-61
2022/05/08 12:19:18;;;;;;;3.42;2.30;;;22.10;1.00;;;;;;5046487;28;20453;-61
2022/05/08 12:21:47;;;;;;;2.75;2.50;;;22.00;1.00;;;;;;5046084;28;20021;-61
2022/05/08 12:24:17;;;;;;;3.38;3.10;;;22.00;2.30;;;;;;5051499;28;20025;-60
2022/05/08 12:26:43;;;;;;;3.55;3.25;;;22.00;2.40;;;;;;5063696;28;20040;-60
2022/05/08 12:29:23;;;;;;;5.13;3.63;;;21.90;2.70;;;;;;5048080;28;20157;-61
2022/05/08 12:31:50;;;;;;;4.40;4.00;;;22.00;2.40;;;;;;5045065;28;20022;-61
2022/05/08 12:34:18;;;;;;;4.22;3.90;;;22.00;2.10;;;;;;5049104;28;20492;-60
2022/05/08 12:36:43;;;;;;;4.93;3.38;;;22.20;2.70;;;;;;5047592;28;20036;-60
2022/05/08 12:39:10;;;;;;;3.90;3.50;;;22.30;2.50;;;;;;5050005;28;20427;-61
2022/05/08 12:41:37;;;;;;;3.33;3.10;;;22.50;2.00;;;;;;5049814;28;20040;-61
2022/05/08 12:44:03;;;;;;;4.13;3.83;;;22.70;1.30;;;;;;5046621;28;20033;-61
2022/05/08 12:46:29;;;;;;;4.15;3.47;;;23.20;1.00;;;;;;5045643;28;20063;-61
2022/05/08 12:49:01;;;;;;;4.05;3.75;;;24.10;1.00;;;;;;5049190;28;22076;-61
2022/05/08 12:51:28;;;;;;;4.65;3.60;;;24.20;1.00;;;;;;5063016;28;20466;-61
2022/05/08 12:53:53;;;;;;;4.50;4.10;;;24.80;1.00;;;;;;5046589;28;20025;-61
2022/05/08 12:56:19;;;;;;;3.47;3.17;;;25.60;1.00;;;;;;5051495;28;20056;-61
2022/05/08 13:01:30;;;;;;;3.28;2.65;;;24.80;1.00;;;;;;5047792;28;20186;-61
2022/05/08 13:03:55;;;;;;;4.00;2.78;;;24.70;1.00;;;;;;5048834;28;20095;-61
2022/05/08 13:06:21;;;;;;;2.90;2.70;;;25.50;1.00;;;;;;5051483;28;20108;-61
2022/05/08 13:08:47;;;;;;;2.70;2.50;;;25.80;1.00;;;;;;5047922;28;20478;-61
2022/05/08 13:11:12;;;;;;;2.75;2.55;;;25.60;1.00;;;;;;5048692;28;20025;-61
2022/05/08 13:13:38;;;;;;;2.53;2.33;;;25.70;1.00;;;;;;5048459;28;20036;-61
2022/05/08 13:16:05;;;;;;;2.60;2.40;;;25.30;1.00;;;;;;5048029;28;20051;-61
2022/05/08 13:18:31;;;;;;;2.70;2.05;;;24.90;1.00;;;;;;5049788;28;20513;-61